sensor_id;sensor_type;location;lat;lon;timestamp;temperature;humidity
18207;DHT22;9229;52.354;20.886;2023-06-04T00:03:23;7.70;99.90
18207;DHT22;9229;52.354;20.886;2023-06-04T00:08:25;7.70;99.90
18207;DHT22;9229;52.354;20.886;2023-06-04T00:13:28;7.60;99.90
18207;DHT22;9229;52.354;20.886;2023-06-04T00:18:30;7.60;99.90
18207;DHT22;9229;52.354;20.886;2023-06-04T00:23:32;7.50;99.90
18207;DHT22;9229;52.354;20.886;2023-06-04T00:28:35;7.40;99.90
18207;DHT22;9229;52.354;20.886;2023-06-04T00:33:37;7.30;99.90
18207;DHT22;9229;52.354;20.886;2023-06-04T00:38:39;7.30;99.90
18207;DHT22;9229;52.354;20.886;2023-06-04T00:43:42;7.20;99.90
18207;DHT22;9229;52.354;20.886;2023-06-04T00:48:46;7.10;99.90
18207;DHT22;9229;52.354;20.886;2023-06-04T00:53:48;7.00;99.90
18207;DHT22;9229;52.354;20.886;2023-06-04T00:58:52;7.00;99.90
18207;DHT22;9229;52.354;20.886;2023-06-04T01:03:55;6.90;99.90
18207;DHT22;9229;52.354;20.886;2023-06-04T01:08:58;6.90;99.90
18207;DHT22;9229;52.354;20.886;2023-06-04T01:14:02;6.90;99.90
18207;DHT22;9229;52.354;20.886;2023-06-04T01:19:11;6.80;99.90
18207;DHT22;9229;52.354;20.886;2023-06-04T01:24:22;7.10;99.90
18207;DHT22;9229;52.354;20.886;2023-06-04T01:29:28;6.70;99.90
18207;DHT22;9229;52.354;20.886;2023-06-04T01:34:30;6.70;99.90
18207;DHT22;9229;52.354;20.886;2023-06-04T01:39:32;6.60;99.90
18207;DHT22;9229;52.354;20.886;2023-06-04T01:44:37;6.60;99.90
18207;DHT22;9229;52.354;20.886;2023-06-04T01:49:39;6.60;99.90
18207;DHT22;9229;52.354;20.886;2023-06-04T01:54:41;6.60;99.90
18207;DHT22;9229;52.354;20.886;2023-06-04T01:59:45;6.50;99.90
18207;DHT22;9229;52.354;20.886;2023-06-04T02:04:47;6.50;99.90
18207;DHT22;9229;52.354;20.886;2023-06-04T02:09:52;6.50;99.90
18207;DHT22;9229;52.354;20.886;2023-06-04T02:14:55;6.40;99.90
18207;DHT22;9229;52.354;20.886;2023-06-04T02:19:58;6.40;99.90
18207;DHT22;9229;52.354;20.886;2023-06-04T02:25:01;6.60;99.90
18207;DHT22;9229;52.354;20.886;2023-06-04T02:30:05;6.40;99.90
18207;DHT22;9229;52.354;20.886;2023-06-04T02:35:08;6.60;99.90
18207;DHT22;9229;52.354;20.886;2023-06-04T02:40:12;6.50;99.90
18207;DHT22;9229;52.354;20.886;2023-06-04T02:45:16;6.50;99.90
18207;DHT22;9229;52.354;20.886;2023-06-04T02:50:18;6.10;99.90
18207;DHT22;9229;52.354;20.886;2023-06-04T02:55:20;6.60;99.90
18207;DHT22;9229;52.354;20.886;2023-06-04T03:00:25;6.70;99.90
18207;DHT22;9229;52.354;20.886;2023-06-04T03:05:28;6.90;99.90
18207;DHT22;9229;52.354;20.886;2023-06-04T03:15:35;6.80;99.90
18207;DHT22;9229;52.354;20.886;2023-06-04T03:20:39;7.10;99.90
18207;DHT22;9229;52.354;20.886;2023-06-04T03:25:41;7.30;99.90
18207;DHT22;9229;52.354;20.886;2023-06-04T03:30:45;7.40;99.90
18207;DHT22;9229;52.354;20.886;2023-06-04T03:40:50;7.40;99.90
18207;DHT22;9229;52.354;20.886;2023-06-04T03:45:55;8.10;99.90
18207;DHT22;9229;52.354;20.886;2023-06-04T03:50:57;8.10;99.90
18207;DHT22;9229;52.354;20.886;2023-06-04T04:01:04;8.00;99.90
18207;DHT22;9229;52.354;20.886;2023-06-04T04:06:09;8.10;99.90
18207;DHT22;9229;52.354;20.886;2023-06-04T04:11:13;8.10;99.90
18207;DHT22;9229;52.354;20.886;2023-06-04T04:16:17;8.20;99.90
18207;DHT22;9229;52.354;20.886;2023-06-04T04:26:24;8.30;99.90
18207;DHT22;9229;52.354;20.886;2023-06-04T04:31:30;7.80;99.90
18207;DHT22;9229;52.354;20.886;2023-06-04T04:36:34;8.50;99.90
18207;DHT22;9229;52.354;20.886;2023-06-04T04:46:41;8.90;99.90
18207;DHT22;9229;52.354;20.886;2023-06-04T04:51:44;9.60;99.90
18207;DHT22;9229;52.354;20.886;2023-06-04T05:01:49;9.80;99.90
18207;DHT22;9229;52.354;20.886;2023-06-04T05:16:58;13.30;99.90
18207;DHT22;9229;52.354;20.886;2023-06-04T05:22:01;14.30;99.90
18207;DHT22;9229;52.354;20.886;2023-06-04T05:32:08;15.80;91.50
18207;DHT22;9229;52.354;20.886;2023-06-04T05:42:13;18.20;91.70
18207;DHT22;9229;52.354;20.886;2023-06-04T05:47:17;18.40;75.50
18207;DHT22;9229;52.354;20.886;2023-06-04T06:02:28;19.20;64.50
18207;DHT22;9229;52.354;20.886;2023-06-04T06:17:40;21.10;53.10
18207;DHT22;9229;52.354;20.886;2023-06-04T06:32:54;21.60;51.60
18207;DHT22;9229;52.354;20.886;2023-06-04T06:48:03;24.80;45.90
18207;DHT22;9229;52.354;20.886;2023-06-04T07:03:11;27.00;38.90
18207;DHT22;9229;52.354;20.886;2023-06-04T07:18:21;27.70;36.90
18207;DHT22;9229;52.354;20.886;2023-06-04T07:28:26;28.50;35.80
18207;DHT22;9229;52.354;20.886;2023-06-04T07:33:31;29.20;34.40
18207;DHT22;9229;52.354;20.886;2023-06-04T07:48:43;29.90;31.80
18207;DHT22;9229;52.354;20.886;2023-06-04T08:03:52;30.50;31.20
18207;DHT22;9229;52.354;20.886;2023-06-04T08:19:00;31.70;28.60
18207;DHT22;9229;52.354;20.886;2023-06-04T08:34:11;31.90;29.20
18207;DHT22;9229;52.354;20.886;2023-06-04T08:44:17;32.10;29.60
18207;DHT22;9229;52.354;20.886;2023-06-04T08:49:22;32.60;28.70
18207;DHT22;9229;52.354;20.886;2023-06-04T08:54:26;33.20;28.20
18207;DHT22;9229;52.354;20.886;2023-06-04T09:04:35;33.80;27.00
18207;DHT22;9229;52.354;20.886;2023-06-04T09:09:39;33.90;26.80
18207;DHT22;9229;52.354;20.886;2023-06-04T09:19:45;34.60;25.90
18207;DHT22;9229;52.354;20.886;2023-06-04T09:24:47;34.80;26.00
18207;DHT22;9229;52.354;20.886;2023-06-04T09:29:51;34.60;25.70
18207;DHT22;9229;52.354;20.886;2023-06-04T09:34:55;34.40;26.10
18207;DHT22;9229;52.354;20.886;2023-06-04T09:50:06;33.60;26.30
18207;DHT22;9229;52.354;20.886;2023-06-04T09:55:18;33.70;26.40
18207;DHT22;9229;52.354;20.886;2023-06-04T10:00:23;34.20;25.70
18207;DHT22;9229;52.354;20.886;2023-06-04T10:05:27;34.40;25.90
18207;DHT22;9229;52.354;20.886;2023-06-04T10:10:37;34.90;25.70
18207;DHT22;9229;52.354;20.886;2023-06-04T10:15:41;34.60;25.30
18207;DHT22;9229;52.354;20.886;2023-06-04T10:20:45;34.70;27.80
18207;DHT22;9229;52.354;20.886;2023-06-04T10:25:48;35.10;25.30
18207;DHT22;9229;52.354;20.886;2023-06-04T10:35:55;35.30;25.10
18207;DHT22;9229;52.354;20.886;2023-06-04T10:46:11;35.70;24.50
18207;DHT22;9229;52.354;20.886;2023-06-04T10:51:15;36.70;25.40
18207;DHT22;9229;52.354;20.886;2023-06-04T10:56:25;36.10;25.60
18207;DHT22;9229;52.354;20.886;2023-06-04T11:06:34;35.10;24.90
18207;DHT22;9229;52.354;20.886;2023-06-04T11:16:39;36.50;26.10
18207;DHT22;9229;52.354;20.886;2023-06-04T11:21:42;36.10;25.30
18207;DHT22;9229;52.354;20.886;2023-06-04T11:26:46;35.40;24.80
18207;DHT22;9229;52.354;20.886;2023-06-04T11:31:48;35.90;26.00
18207;DHT22;9229;52.354;20.886;2023-06-04T11:36:54;34.10;25.70
18207;DHT22;9229;52.354;20.886;2023-06-04T11:41:57;33.10;26.00
18207;DHT22;9229;52.354;20.886;2023-06-04T11:47:05;31.10;26.60
18207;DHT22;9229;52.354;20.886;2023-06-04T11:52:13;31.30;28.50
18207;DHT22;9229;52.354;20.886;2023-06-04T11:57:15;32.50;27.00
18207;DHT22;9229;52.354;20.886;2023-06-04T12:02:21;33.00;27.40
18207;DHT22;9229;52.354;20.886;2023-06-04T12:07:24;33.50;25.50
18207;DHT22;9229;52.354;20.886;2023-06-04T12:12:27;33.70;26.30
18207;DHT22;9229;52.354;20.886;2023-06-04T12:17:29;33.60;26.00
18207;DHT22;9229;52.354;20.886;2023-06-04T12:22:33;33.60;26.10
18207;DHT22;9229;52.354;20.886;2023-06-04T12:27:47;33.40;25.80
18207;DHT22;9229;52.354;20.886;2023-06-04T12:32:49;33.20;26.40
18207;DHT22;9229;52.354;20.886;2023-06-04T12:37:55;33.90;26.00
18207;DHT22;9229;52.354;20.886;2023-06-04T12:42:58;33.30;25.50
18207;DHT22;9229;52.354;20.886;2023-06-04T12:48:01;33.50;25.70
18207;DHT22;9229;52.354;20.886;2023-06-04T12:53:04;33.30;24.80
18207;DHT22;9229;52.354;20.886;2023-06-04T13:03:10;32.30;25.30
18207;DHT22;9229;52.354;20.886;2023-06-04T13:08:13;32.40;25.70
18207;DHT22;9229;52.354;20.886;2023-06-04T13:13:15;33.20;26.10
18207;DHT22;9229;52.354;20.886;2023-06-04T13:18:18;33.90;25.60
18207;DHT22;9229;52.354;20.886;2023-06-04T13:23:22;34.50;25.60
18207;DHT22;9229;52.354;20.886;2023-06-04T13:28:24;34.20;24.40
18207;DHT22;9229;52.354;20.886;2023-06-04T13:33:26;33.20;24.80
18207;DHT22;9229;52.354;20.886;2023-06-04T13:38:31;32.00;25.10
18207;DHT22;9229;52.354;20.886;2023-06-04T13:43:33;31.30;26.20
18207;DHT22;9229;52.354;20.886;2023-06-04T13:48:35;31.40;26.30
18207;DHT22;9229;52.354;20.886;2023-06-04T13:53:39;31.80;26.40
18207;DHT22;9229;52.354;20.886;2023-06-04T13:58:41;31.80;26.20
18207;DHT22;9229;52.354;20.886;2023-06-04T14:03:44;29.80;26.30
18207;DHT22;9229;52.354;20.886;2023-06-04T14:08:50;29.60;26.70
18207;DHT22;9229;52.354;20.886;2023-06-04T14:13:52;28.60;29.40
18207;DHT22;9229;52.354;20.886;2023-06-04T14:18:54;26.70;30.00
18207;DHT22;9229;52.354;20.886;2023-06-04T14:23:59;25.80;33.10
18207;DHT22;9229;52.354;20.886;2023-06-04T14:29:04;25.40;33.20
18207;DHT22;9229;52.354;20.886;2023-06-04T14:34:09;25.10;32.30
18207;DHT22;9229;52.354;20.886;2023-06-04T14:39:13;26.70;34.60
18207;DHT22;9229;52.354;20.886;2023-06-04T14:44:15;24.80;32.60
18207;DHT22;9229;52.354;20.886;2023-06-04T14:49:18;24.60;33.10
18207;DHT22;9229;52.354;20.886;2023-06-04T14:54:23;24.50;34.60
18207;DHT22;9229;52.354;20.886;2023-06-04T14:59:25;24.40;35.00
18207;DHT22;9229;52.354;20.886;2023-06-04T15:04:27;24.30;34.40
18207;DHT22;9229;52.354;20.886;2023-06-04T15:09:32;24.00;34.10
18207;DHT22;9229;52.354;20.886;2023-06-04T15:14:34;23.70;33.70
18207;DHT22;9229;52.354;20.886;2023-06-04T15:19:38;23.80;34.40
18207;DHT22;9229;52.354;20.886;2023-06-04T15:24:42;23.60;34.20
18207;DHT22;9229;52.354;20.886;2023-06-04T15:29:45;23.40;34.70
18207;DHT22;9229;52.354;20.886;2023-06-04T15:34:47;23.30;34.70
18207;DHT22;9229;52.354;20.886;2023-06-04T15:39:51;23.20;33.60
18207;DHT22;9229;52.354;20.886;2023-06-04T15:44:53;23.10;34.80
18207;DHT22;9229;52.354;20.886;2023-06-04T15:49:55;23.00;35.10
18207;DHT22;9229;52.354;20.886;2023-06-04T15:54:58;22.90;34.20
18207;DHT22;9229;52.354;20.886;2023-06-04T16:00:00;23.60;36.00
18207;DHT22;9229;52.354;20.886;2023-06-04T16:05:05;22.80;33.70
18207;DHT22;9229;52.354;20.886;2023-06-04T16:10:09;22.70;34.80
18207;DHT22;9229;52.354;20.886;2023-06-04T16:15:11;22.60;35.10
18207;DHT22;9229;52.354;20.886;2023-06-04T16:20:13;22.50;34.60
18207;DHT22;9229;52.354;20.886;2023-06-04T16:25:17;22.60;35.30
18207;DHT22;9229;52.354;20.886;2023-06-04T16:30:19;22.50;35.50
18207;DHT22;9229;52.354;20.886;2023-06-04T16:35:21;22.50;35.70
18207;DHT22;9229;52.354;20.886;2023-06-04T16:40:26;24.00;37.00
18207;DHT22;9229;52.354;20.886;2023-06-04T16:45:29;22.40;35.50
18207;DHT22;9229;52.354;20.886;2023-06-04T16:50:31;22.60;37.00
18207;DHT22;9229;52.354;20.886;2023-06-04T16:55:35;22.40;37.00
18207;DHT22;9229;52.354;20.886;2023-06-04T17:00:47;22.20;36.50
18207;DHT22;9229;52.354;20.886;2023-06-04T17:05:49;22.20;36.90
18207;DHT22;9229;52.354;20.886;2023-06-04T17:10:53;22.10;37.60
18207;DHT22;9229;52.354;20.886;2023-06-04T17:15:55;22.60;39.00
18207;DHT22;9229;52.354;20.886;2023-06-04T17:20:57;22.00;39.50
18207;DHT22;9229;52.354;20.886;2023-06-04T17:26:01;21.90;40.30
18207;DHT22;9229;52.354;20.886;2023-06-04T17:31:03;21.80;39.80
18207;DHT22;9229;52.354;20.886;2023-06-04T17:36:05;21.80;39.20
18207;DHT22;9229;52.354;20.886;2023-06-04T17:41:08;21.70;40.90
18207;DHT22;9229;52.354;20.886;2023-06-04T17:46:11;21.90;41.70
18207;DHT22;9229;52.354;20.886;2023-06-04T17:51:14;21.40;41.10
18207;DHT22;9229;52.354;20.886;2023-06-04T17:56:18;21.20;41.30
18207;DHT22;9229;52.354;20.886;2023-06-04T18:01:21;21.00;42.00
18207;DHT22;9229;52.354;20.886;2023-06-04T18:06:23;20.80;43.00
18207;DHT22;9229;52.354;20.886;2023-06-04T18:11:26;20.60;43.80
18207;DHT22;9229;52.354;20.886;2023-06-04T18:16:28;20.40;44.50
18207;DHT22;9229;52.354;20.886;2023-06-04T18:21:30;20.40;44.40
18207;DHT22;9229;52.354;20.886;2023-06-04T18:26:38;20.00;44.50
18207;DHT22;9229;52.354;20.886;2023-06-04T18:31:40;19.70;45.80
18207;DHT22;9229;52.354;20.886;2023-06-04T18:36:42;19.50;48.90
18207;DHT22;9229;52.354;20.886;2023-06-04T18:41:46;19.30;49.80
18207;DHT22;9229;52.354;20.886;2023-06-04T18:46:48;19.10;50.30
18207;DHT22;9229;52.354;20.886;2023-06-04T18:51:51;18.70;50.80
18207;DHT22;9229;52.354;20.886;2023-06-04T18:56:55;18.40;51.50
18207;DHT22;9229;52.354;20.886;2023-06-04T19:01:57;18.30;52.60
18207;DHT22;9229;52.354;20.886;2023-06-04T19:07:02;17.90;53.50
18207;DHT22;9229;52.354;20.886;2023-06-04T19:12:05;17.60;54.40
18207;DHT22;9229;52.354;20.886;2023-06-04T19:17:07;17.40;55.70
18207;DHT22;9229;52.354;20.886;2023-06-04T19:22:09;17.80;57.20
18207;DHT22;9229;52.354;20.886;2023-06-04T19:27:13;16.80;56.50
18207;DHT22;9229;52.354;20.886;2023-06-04T19:32:17;16.50;57.30
18207;DHT22;9229;52.354;20.886;2023-06-04T19:37:19;16.30;57.60
18207;DHT22;9229;52.354;20.886;2023-06-04T19:42:22;16.40;59.10
18207;DHT22;9229;52.354;20.886;2023-06-04T19:47:26;15.70;59.40
18207;DHT22;9229;52.354;20.886;2023-06-04T19:52:28;15.60;60.70
18207;DHT22;9229;52.354;20.886;2023-06-04T19:57:33;15.30;61.90
18207;DHT22;9229;52.354;20.886;2023-06-04T20:02:36;15.60;63.30
18207;DHT22;9229;52.354;20.886;2023-06-04T20:07:38;15.00;63.60
18207;DHT22;9229;52.354;20.886;2023-06-04T20:12:41;14.80;64.30
18207;DHT22;9229;52.354;20.886;2023-06-04T20:17:43;14.60;65.20
18207;DHT22;9229;52.354;20.886;2023-06-04T20:22:45;14.60;66.40
18207;DHT22;9229;52.354;20.886;2023-06-04T20:27:49;14.20;67.60
18207;DHT22;9229;52.354;20.886;2023-06-04T20:32:51;14.10;67.90
18207;DHT22;9229;52.354;20.886;2023-06-04T20:37:54;13.90;68.70
18207;DHT22;9229;52.354;20.886;2023-06-04T20:42:58;13.70;69.50
18207;DHT22;9229;52.354;20.886;2023-06-04T20:48:01;13.40;70.30
18207;DHT22;9229;52.354;20.886;2023-06-04T20:53:03;13.40;75.10
18207;DHT22;9229;52.354;20.886;2023-06-04T20:58:07;13.10;74.50
18207;DHT22;9229;52.354;20.886;2023-06-04T21:03:09;13.10;74.30
18207;DHT22;9229;52.354;20.886;2023-06-04T21:08:17;12.60;78.60
18207;DHT22;9229;52.354;20.886;2023-06-04T21:13:21;12.50;77.80
18207;DHT22;9229;52.354;20.886;2023-06-04T21:23:25;12.50;78.00
18207;DHT22;9229;52.354;20.886;2023-06-04T21:28:29;12.00;79.90
18207;DHT22;9229;52.354;20.886;2023-06-04T21:33:31;12.20;78.90
18207;DHT22;9229;52.354;20.886;2023-06-04T21:38:33;12.00;79.70
18207;DHT22;9229;52.354;20.886;2023-06-04T21:43:37;11.80;80.90
18207;DHT22;9229;52.354;20.886;2023-06-04T21:48:42;11.70;83.00
18207;DHT22;9229;52.354;20.886;2023-06-04T21:53:44;11.80;89.00
18207;DHT22;9229;52.354;20.886;2023-06-04T21:58:48;11.10;90.00
18207;DHT22;9229;52.354;20.886;2023-06-04T22:03:50;11.30;90.30
18207;DHT22;9229;52.354;20.886;2023-06-04T22:08:52;11.30;91.70
18207;DHT22;9229;52.354;20.886;2023-06-04T22:13:55;11.10;95.00
18207;DHT22;9229;52.354;20.886;2023-06-04T22:18:58;11.00;94.40
18207;DHT22;9229;52.354;20.886;2023-06-04T22:24:01;10.90;97.20
18207;DHT22;9229;52.354;20.886;2023-06-04T22:29:05;10.90;96.00
18207;DHT22;9229;52.354;20.886;2023-06-04T22:34:07;11.00;98.70
18207;DHT22;9229;52.354;20.886;2023-06-04T22:39:09;10.20;99.90
18207;DHT22;9229;52.354;20.886;2023-06-04T22:44:12;10.50;99.90
18207;DHT22;9229;52.354;20.886;2023-06-04T22:49:14;10.50;99.90
18207;DHT22;9229;52.354;20.886;2023-06-04T22:54:19;10.30;99.90
18207;DHT22;9229;52.354;20.886;2023-06-04T22:59:23;10.30;99.90
18207;DHT22;9229;52.354;20.886;2023-06-04T23:04:27;10.10;99.90
18207;DHT22;9229;52.354;20.886;2023-06-04T23:14:34;10.30;99.90
18207;DHT22;9229;52.354;20.886;2023-06-04T23:19:36;10.00;99.90
18207;DHT22;9229;52.354;20.886;2023-06-04T23:24:38;10.00;99.90
18207;DHT22;9229;52.354;20.886;2023-06-04T23:29:42;9.90;99.90
18207;DHT22;9229;52.354;20.886;2023-06-04T23:34:45;9.80;99.90
18207;DHT22;9229;52.354;20.886;2023-06-04T23:39:47;9.70;99.90
18207;DHT22;9229;52.354;20.886;2023-06-04T23:44:52;9.60;99.90
18207;DHT22;9229;52.354;20.886;2023-06-04T23:54:57;9.40;99.90
